sensor_id;sensor_type;location;lat;lon;timestamp;temperature;humidity
67748;HTU21D;54543;50.712;6.070;2023-10-09T00:02:13;16.87;79.02
67748;HTU21D;54543;50.712;6.070;2023-10-09T00:04:40;16.86;78.97
67748;HTU21D;54543;50.712;6.070;2023-10-09T00:07:08;16.86;78.87
67748;HTU21D;54543;50.712;6.070;2023-10-09T00:09:37;16.81;79.00
67748;HTU21D;54543;50.712;6.070;2023-10-09T00:12:16;16.80;79.00
67748;HTU21D;54543;50.712;6.070;2023-10-09T00:14:42;16.73;79.08
67748;HTU21D;54543;50.712;6.070;2023-10-09T00:17:14;16.72;79.13
67748;HTU21D;54543;50.712;6.070;2023-10-09T00:19:40;16.67;79.21
67748;HTU21D;54543;50.712;6.070;2023-10-09T00:22:08;16.65;79.21
67748;HTU21D;54543;50.712;6.070;2023-10-09T00:24:37;16.61;79.45
67748;HTU21D;54543;50.712;6.070;2023-10-09T00:27:10;16.59;79.37
67748;HTU21D;54543;50.712;6.070;2023-10-09T00:29:44;16.54;79.57
67748;HTU21D;54543;50.712;6.070;2023-10-09T00:32:15;16.51;79.55
67748;HTU21D;54543;50.712;6.070;2023-10-09T00:34:53;16.46;79.88
67748;HTU21D;54543;50.712;6.070;2023-10-09T00:37:23;16.43;80.07
67748;HTU21D;54543;50.712;6.070;2023-10-09T00:39:51;16.43;80.00
67748;HTU21D;54543;50.712;6.070;2023-10-09T00:42:26;16.40;80.13
67748;HTU21D;54543;50.712;6.070;2023-10-09T00:45:04;16.39;80.03
67748;HTU21D;54543;50.712;6.070;2023-10-09T00:47:34;16.39;80.33
67748;HTU21D;54543;50.712;6.070;2023-10-09T00:50:09;16.37;80.30
67748;HTU21D;54543;50.712;6.070;2023-10-09T00:52:42;16.39;80.15
67748;HTU21D;54543;50.712;6.070;2023-10-09T00:55:14;16.35;80.33
67748;HTU21D;54543;50.712;6.070;2023-10-09T00:57:47;16.34;80.41
67748;HTU21D;54543;50.712;6.070;2023-10-09T01:00:18;16.34;80.46
67748;HTU21D;54543;50.712;6.070;2023-10-09T01:06:04;16.30;81.27
67748;HTU21D;54543;50.712;6.070;2023-10-09T01:08:35;16.31;80.70
67748;HTU21D;54543;50.712;6.070;2023-10-09T01:11:11;16.32;80.64
67748;HTU21D;54543;50.712;6.070;2023-10-09T01:13:57;16.31;81.01
67748;HTU21D;54543;50.712;6.070;2023-10-09T01:16:37;16.30;80.72
67748;HTU21D;54543;50.712;6.070;2023-10-09T01:19:03;16.32;80.69
67748;HTU21D;54543;50.712;6.070;2023-10-09T01:21:38;16.31;81.67
67748;HTU21D;54543;50.712;6.070;2023-10-09T01:24:05;16.32;81.07
67748;HTU21D;54543;50.712;6.070;2023-10-09T01:26:40;16.34;80.56
67748;HTU21D;54543;50.712;6.070;2023-10-09T01:29:10;16.35;80.65
67748;HTU21D;54543;50.712;6.070;2023-10-09T01:31:46;16.35;80.97
67748;HTU21D;54543;50.712;6.070;2023-10-09T01:34:27;16.37;80.94
67748;HTU21D;54543;50.712;6.070;2023-10-09T01:37:16;16.40;80.61
67748;HTU21D;54543;50.712;6.070;2023-10-09T01:39:57;16.43;81.01
67748;HTU21D;54543;50.712;6.070;2023-10-09T01:43:01;16.46;80.69
67748;HTU21D;54543;50.712;6.070;2023-10-09T01:45:29;16.49;80.56
67748;HTU21D;54543;50.712;6.070;2023-10-09T01:47:55;16.49;80.80
67748;HTU21D;54543;50.712;6.070;2023-10-09T01:50:21;16.52;80.85
67748;HTU21D;54543;50.712;6.070;2023-10-09T01:52:50;16.56;80.81
67748;HTU21D;54543;50.712;6.070;2023-10-09T01:55:19;16.60;80.62
67748;HTU21D;54543;50.712;6.070;2023-10-09T01:58:08;16.59;80.81
67748;HTU21D;54543;50.712;6.070;2023-10-09T02:00:42;16.61;80.98
67748;HTU21D;54543;50.712;6.070;2023-10-09T02:03:14;16.62;80.97
67748;HTU21D;54543;50.712;6.070;2023-10-09T02:05:43;16.64;80.87
67748;HTU21D;54543;50.712;6.070;2023-10-09T02:08:09;16.64;80.76
67748;HTU21D;54543;50.712;6.070;2023-10-09T02:10:36;16.64;80.72
67748;HTU21D;54543;50.712;6.070;2023-10-09T02:13:07;16.66;80.88
67748;HTU21D;54543;50.712;6.070;2023-10-09T02:15:37;16.70;80.88
67748;HTU21D;54543;50.712;6.070;2023-10-09T02:18:15;16.70;80.85
67748;HTU21D;54543;50.712;6.070;2023-10-09T02:20:52;16.70;80.63
67748;HTU21D;54543;50.712;6.070;2023-10-09T02:23:38;16.70;80.68
67748;HTU21D;54543;50.712;6.070;2023-10-09T02:26:13;16.65;80.91
67748;HTU21D;54543;50.712;6.070;2023-10-09T02:28:45;16.65;80.95
67748;HTU21D;54543;50.712;6.070;2023-10-09T02:31:27;16.65;81.04
67748;HTU21D;54543;50.712;6.070;2023-10-09T02:34:01;16.65;81.10
67748;HTU21D;54543;50.712;6.070;2023-10-09T02:36:30;16.66;80.80
67748;HTU21D;54543;50.712;6.070;2023-10-09T02:38:56;16.65;80.97
67748;HTU21D;54543;50.712;6.070;2023-10-09T02:41:22;16.66;81.03
67748;HTU21D;54543;50.712;6.070;2023-10-09T02:43:54;16.65;80.95
67748;HTU21D;54543;50.712;6.070;2023-10-09T02:46:25;16.65;81.14
67748;HTU21D;54543;50.712;6.070;2023-10-09T02:48:57;16.62;81.11
67748;HTU21D;54543;50.712;6.070;2023-10-09T02:51:30;16.63;81.17
67748;HTU21D;54543;50.712;6.070;2023-10-09T02:54:06;16.64;81.23
67748;HTU21D;54543;50.712;6.070;2023-10-09T02:56:48;16.63;81.26
67748;HTU21D;54543;50.712;6.070;2023-10-09T02:59:21;16.63;81.47
67748;HTU21D;54543;50.712;6.070;2023-10-09T03:01:50;16.64;81.03
67748;HTU21D;54543;50.712;6.070;2023-10-09T03:04:18;16.67;81.33
67748;HTU21D;54543;50.712;6.070;2023-10-09T03:06:45;16.67;81.33
67748;HTU21D;54543;50.712;6.070;2023-10-09T03:09:19;16.69;81.30
67748;HTU21D;54543;50.712;6.070;2023-10-09T03:11:54;16.71;81.41
67748;HTU21D;54543;50.712;6.070;2023-10-09T03:14:21;16.70;81.31
67748;HTU21D;54543;50.712;6.070;2023-10-09T03:16:50;16.67;81.56
67748;HTU21D;54543;50.712;6.070;2023-10-09T03:19:15;16.67;81.48
67748;HTU21D;54543;50.712;6.070;2023-10-09T03:21:42;16.67;81.40
67748;HTU21D;54543;50.712;6.070;2023-10-09T03:24:07;16.69;81.39
67748;HTU21D;54543;50.712;6.070;2023-10-09T03:26:34;16.69;81.40
67748;HTU21D;54543;50.712;6.070;2023-10-09T03:28:59;16.67;81.43
67748;HTU21D;54543;50.712;6.070;2023-10-09T03:31:34;16.66;81.27
67748;HTU21D;54543;50.712;6.070;2023-10-09T03:34:02;16.65;81.46
67748;HTU21D;54543;50.712;6.070;2023-10-09T03:36:29;16.63;81.87
67748;HTU21D;54543;50.712;6.070;2023-10-09T03:38:59;16.62;81.75
67748;HTU21D;54543;50.712;6.070;2023-10-09T03:41:25;16.62;82.01
67748;HTU21D;54543;50.712;6.070;2023-10-09T03:43:54;16.63;81.72
67748;HTU21D;54543;50.712;6.070;2023-10-09T03:46:21;16.63;81.83
67748;HTU21D;54543;50.712;6.070;2023-10-09T03:48:48;16.63;81.47
67748;HTU21D;54543;50.712;6.070;2023-10-09T03:51:14;16.62;81.70
67748;HTU21D;54543;50.712;6.070;2023-10-09T03:53:50;16.59;81.99
67748;HTU21D;54543;50.712;6.070;2023-10-09T03:56:17;16.58;81.57
67748;HTU21D;54543;50.712;6.070;2023-10-09T03:58:46;16.58;81.72
67748;HTU21D;54543;50.712;6.070;2023-10-09T04:01:15;16.56;81.58
67748;HTU21D;54543;50.712;6.070;2023-10-09T04:04:00;16.52;81.90
67748;HTU21D;54543;50.712;6.070;2023-10-09T04:06:26;16.49;81.97
67748;HTU21D;54543;50.712;6.070;2023-10-09T04:09:07;16.47;81.96
67748;HTU21D;54543;50.712;6.070;2023-10-09T04:11:46;16.45;82.23
67748;HTU21D;54543;50.712;6.070;2023-10-09T04:14:13;16.44;82.13
67748;HTU21D;54543;50.712;6.070;2023-10-09T04:16:59;16.44;81.94
67748;HTU21D;54543;50.712;6.070;2023-10-09T04:19:32;16.43;82.07
67748;HTU21D;54543;50.712;6.070;2023-10-09T04:22:14;16.42;82.20
67748;HTU21D;54543;50.712;6.070;2023-10-09T04:24:51;16.43;82.05
67748;HTU21D;54543;50.712;6.070;2023-10-09T04:27:17;16.45;81.80
67748;HTU21D;54543;50.712;6.070;2023-10-09T04:29:42;16.42;82.16
67748;HTU21D;54543;50.712;6.070;2023-10-09T04:32:15;16.42;82.27
67748;HTU21D;54543;50.712;6.070;2023-10-09T04:34:44;16.41;82.13
67748;HTU21D;54543;50.712;6.070;2023-10-09T04:37:21;16.42;82.17
67748;HTU21D;54543;50.712;6.070;2023-10-09T04:40:03;16.40;82.10
67748;HTU21D;54543;50.712;6.070;2023-10-09T04:42:52;16.40;82.10
67748;HTU21D;54543;50.712;6.070;2023-10-09T04:45:24;16.39;82.26
67748;HTU21D;54543;50.712;6.070;2023-10-09T04:48:09;16.39;82.11
67748;HTU21D;54543;50.712;6.070;2023-10-09T04:50:35;16.36;82.16
67748;HTU21D;54543;50.712;6.070;2023-10-09T04:53:01;16.36;82.25
67748;HTU21D;54543;50.712;6.070;2023-10-09T04:55:39;16.37;82.14
67748;HTU21D;54543;50.712;6.070;2023-10-09T04:58:10;16.35;82.23
67748;HTU21D;54543;50.712;6.070;2023-10-09T05:00:49;16.34;82.30
67748;HTU21D;54543;50.712;6.070;2023-10-09T05:03:28;16.34;82.42
67748;HTU21D;54543;50.712;6.070;2023-10-09T05:05:54;16.32;82.43
67748;HTU21D;54543;50.712;6.070;2023-10-09T05:08:46;16.30;82.39
67748;HTU21D;54543;50.712;6.070;2023-10-09T05:11:12;16.29;82.33
67748;HTU21D;54543;50.712;6.070;2023-10-09T05:14:03;16.30;82.36
67748;HTU21D;54543;50.712;6.070;2023-10-09T05:16:38;16.27;82.47
67748;HTU21D;54543;50.712;6.070;2023-10-09T05:19:22;16.27;83.13
67748;HTU21D;54543;50.712;6.070;2023-10-09T05:22:06;16.31;82.93
67748;HTU21D;54543;50.712;6.070;2023-10-09T05:24:55;16.33;83.08
67748;HTU21D;54543;50.712;6.070;2023-10-09T05:27:21;16.39;82.63
67748;HTU21D;54543;50.712;6.070;2023-10-09T05:30:10;16.42;82.02
67748;HTU21D;54543;50.712;6.070;2023-10-09T05:32:53;16.42;81.68
67748;HTU21D;54543;50.712;6.070;2023-10-09T05:35:33;16.41;81.75
67748;HTU21D;54543;50.712;6.070;2023-10-09T05:38:27;16.41;81.70
67748;HTU21D;54543;50.712;6.070;2023-10-09T05:40:56;16.37;81.70
67748;HTU21D;54543;50.712;6.070;2023-10-09T05:43:44;16.36;81.59
67748;HTU21D;54543;50.712;6.070;2023-10-09T05:46:28;16.36;81.80
67748;HTU21D;54543;50.712;6.070;2023-10-09T05:49:01;16.41;81.52
67748;HTU21D;54543;50.712;6.070;2023-10-09T05:51:35;16.43;81.29
67748;HTU21D;54543;50.712;6.070;2023-10-09T05:54:07;16.45;81.08
67748;HTU21D;54543;50.712;6.070;2023-10-09T05:56:58;16.44;81.04
67748;HTU21D;54543;50.712;6.070;2023-10-09T05:59:56;16.42;81.00
67748;HTU21D;54543;50.712;6.070;2023-10-09T06:02:40;16.43;80.88
67748;HTU21D;54543;50.712;6.070;2023-10-09T06:05:24;16.43;80.81
67748;HTU21D;54543;50.712;6.070;2023-10-09T06:08:15;16.41;81.06
67748;HTU21D;54543;50.712;6.070;2023-10-09T06:10:50;16.40;81.03
67748;HTU21D;54543;50.712;6.070;2023-10-09T06:13:31;16.41;81.07
67748;HTU21D;54543;50.712;6.070;2023-10-09T06:16:06;16.40;81.06
67748;HTU21D;54543;50.712;6.070;2023-10-09T06:18:45;16.40;81.03
67748;HTU21D;54543;50.712;6.070;2023-10-09T06:21:20;16.41;80.72
67748;HTU21D;54543;50.712;6.070;2023-10-09T06:24:06;16.41;80.67
67748;HTU21D;54543;50.712;6.070;2023-10-09T06:26:41;16.37;80.79
67748;HTU21D;54543;50.712;6.070;2023-10-09T06:29:17;16.36;80.91
67748;HTU21D;54543;50.712;6.070;2023-10-09T06:32:03;16.36;80.84
67748;HTU21D;54543;50.712;6.070;2023-10-09T06:34:53;16.37;80.85
67748;HTU21D;54543;50.712;6.070;2023-10-09T06:37:23;16.37;80.94
67748;HTU21D;54543;50.712;6.070;2023-10-09T06:39:56;16.39;81.14
67748;HTU21D;54543;50.712;6.070;2023-10-09T06:42:28;16.44;80.72
67748;HTU21D;54543;50.712;6.070;2023-10-09T06:45:12;16.51;80.46
67748;HTU21D;54543;50.712;6.070;2023-10-09T06:47:47;16.54;80.33
67748;HTU21D;54543;50.712;6.070;2023-10-09T06:50:35;16.57;80.43
67748;HTU21D;54543;50.712;6.070;2023-10-09T06:53:19;16.60;80.13
67748;HTU21D;54543;50.712;6.070;2023-10-09T06:55:45;16.63;79.95
67748;HTU21D;54543;50.712;6.070;2023-10-09T06:58:15;16.64;79.95
67748;HTU21D;54543;50.712;6.070;2023-10-09T07:00:49;16.65;79.94
67748;HTU21D;54543;50.712;6.070;2023-10-09T07:03:29;16.66;79.78
67748;HTU21D;54543;50.712;6.070;2023-10-09T07:06:09;16.69;79.85
67748;HTU21D;54543;50.712;6.070;2023-10-09T07:08:56;16.67;79.92
67748;HTU21D;54543;50.712;6.070;2023-10-09T07:14:13;16.72;79.81
67748;HTU21D;54543;50.712;6.070;2023-10-09T07:19:32;16.72;80.08
67748;HTU21D;54543;50.712;6.070;2023-10-09T07:22:17;16.72;80.01
67748;HTU21D;54543;50.712;6.070;2023-10-09T07:24:49;16.74;80.07
67748;HTU21D;54543;50.712;6.070;2023-10-09T07:27:22;16.74;79.96
67748;HTU21D;54543;50.712;6.070;2023-10-09T07:30:08;16.74;79.98
67748;HTU21D;54543;50.712;6.070;2023-10-09T07:33:01;16.76;79.86
67748;HTU21D;54543;50.712;6.070;2023-10-09T07:35:39;16.77;79.83
67748;HTU21D;54543;50.712;6.070;2023-10-09T07:38:08;16.79;79.71
67748;HTU21D;54543;50.712;6.070;2023-10-09T07:40:38;16.81;79.89
67748;HTU21D;54543;50.712;6.070;2023-10-09T07:43:23;16.84;79.89
67748;HTU21D;54543;50.712;6.070;2023-10-09T07:45:55;16.88;79.74
67748;HTU21D;54543;50.712;6.070;2023-10-09T07:48:24;16.90;79.80
67748;HTU21D;54543;50.712;6.070;2023-10-09T07:50:52;16.91;79.63
67748;HTU21D;54543;50.712;6.070;2023-10-09T07:53:23;16.93;79.75
67748;HTU21D;54543;50.712;6.070;2023-10-09T07:55:55;16.98;79.60
67748;HTU21D;54543;50.712;6.070;2023-10-09T07:58:24;17.00;79.59
67748;HTU21D;54543;50.712;6.070;2023-10-09T08:00:56;16.99;79.60
67748;HTU21D;54543;50.712;6.070;2023-10-09T08:03:41;17.02;79.51
67748;HTU21D;54543;50.712;6.070;2023-10-09T08:06:12;17.02;79.53
67748;HTU21D;54543;50.712;6.070;2023-10-09T08:08:56;17.04;79.56
67748;HTU21D;54543;50.712;6.070;2023-10-09T08:11:31;17.05;79.56
67748;HTU21D;54543;50.712;6.070;2023-10-09T08:14:08;17.07;79.66
67748;HTU21D;54543;50.712;6.070;2023-10-09T08:16:53;17.11;79.40
67748;HTU21D;54543;50.712;6.070;2023-10-09T08:19:40;17.16;79.35
67748;HTU21D;54543;50.712;6.070;2023-10-09T08:22:29;17.21;79.50
67748;HTU21D;54543;50.712;6.070;2023-10-09T08:24:55;17.28;79.34
67748;HTU21D;54543;50.712;6.070;2023-10-09T08:30:03;17.46;78.64
67748;HTU21D;54543;50.712;6.070;2023-10-09T08:32:51;17.55;78.09
67748;HTU21D;54543;50.712;6.070;2023-10-09T08:35:32;17.62;78.05
67748;HTU21D;54543;50.712;6.070;2023-10-09T08:38:03;17.68;78.01
67748;HTU21D;54543;50.712;6.070;2023-10-09T08:40:39;17.80;77.88
67748;HTU21D;54543;50.712;6.070;2023-10-09T08:43:21;17.91;77.63
67748;HTU21D;54543;50.712;6.070;2023-10-09T08:45:53;17.97;77.31
67748;HTU21D;54543;50.712;6.070;2023-10-09T08:48:20;17.99;77.44
67748;HTU21D;54543;50.712;6.070;2023-10-09T08:50:48;18.05;76.86
67748;HTU21D;54543;50.712;6.070;2023-10-09T08:53:15;18.09;77.24
67748;HTU21D;54543;50.712;6.070;2023-10-09T08:55:42;18.15;77.10
67748;HTU21D;54543;50.712;6.070;2023-10-09T08:58:09;18.21;76.99
67748;HTU21D;54543;50.712;6.070;2023-10-09T09:01:07;18.32;76.78
67748;HTU21D;54543;50.712;6.070;2023-10-09T09:03:41;18.35;75.89
67748;HTU21D;54543;50.712;6.070;2023-10-09T09:06:08;18.41;76.50
67748;HTU21D;54543;50.712;6.070;2023-10-09T09:08:34;18.51;76.12
67748;HTU21D;54543;50.712;6.070;2023-10-09T09:11:11;18.59;75.74
67748;HTU21D;54543;50.712;6.070;2023-10-09T09:16:20;18.62;74.44
67748;HTU21D;54543;50.712;6.070;2023-10-09T09:18:54;18.62;75.46
67748;HTU21D;54543;50.712;6.070;2023-10-09T09:21:29;18.62;75.54
67748;HTU21D;54543;50.712;6.070;2023-10-09T09:23:57;18.64;75.50
67748;HTU21D;54543;50.712;6.070;2023-10-09T09:26:38;18.68;74.60
67748;HTU21D;54543;50.712;6.070;2023-10-09T09:29:10;18.78;74.41
67748;HTU21D;54543;50.712;6.070;2023-10-09T09:31:36;18.81;74.60
67748;HTU21D;54543;50.712;6.070;2023-10-09T09:34:07;18.85;74.54
67748;HTU21D;54543;50.712;6.070;2023-10-09T09:36:57;18.98;73.72
67748;HTU21D;54543;50.712;6.070;2023-10-09T09:39:26;19.15;73.86
67748;HTU21D;54543;50.712;6.070;2023-10-09T09:41:59;19.28;73.24
67748;HTU21D;54543;50.712;6.070;2023-10-09T09:44:39;19.37;73.05
67748;HTU21D;54543;50.712;6.070;2023-10-09T09:47:12;19.46;73.07
67748;HTU21D;54543;50.712;6.070;2023-10-09T09:49:42;19.60;72.63
67748;HTU21D;54543;50.712;6.070;2023-10-09T09:52:09;19.71;71.97
67748;HTU21D;54543;50.712;6.070;2023-10-09T09:54:38;19.84;71.96
67748;HTU21D;54543;50.712;6.070;2023-10-09T09:57:04;20.02;71.06
67748;HTU21D;54543;50.712;6.070;2023-10-09T09:59:40;20.20;70.76
67748;HTU21D;54543;50.712;6.070;2023-10-09T10:02:30;20.40;69.50
67748;HTU21D;54543;50.712;6.070;2023-10-09T10:05:00;20.51;69.94
67748;HTU21D;54543;50.712;6.070;2023-10-09T10:07:30;20.62;68.59
67748;HTU21D;54543;50.712;6.070;2023-10-09T10:09:56;20.69;69.41
67748;HTU21D;54543;50.712;6.070;2023-10-09T10:15:13;20.98;68.50
67748;HTU21D;54543;50.712;6.070;2023-10-09T10:20:24;21.18;67.33
67748;HTU21D;54543;50.712;6.070;2023-10-09T10:22:52;21.22;66.74
67748;HTU21D;54543;50.712;6.070;2023-10-09T10:25:39;21.27;65.79
67748;HTU21D;54543;50.712;6.070;2023-10-09T10:28:19;21.25;62.94
67748;HTU21D;54543;50.712;6.070;2023-10-09T10:31:14;21.34;66.30
67748;HTU21D;54543;50.712;6.070;2023-10-09T10:36:22;21.39;64.85
67748;HTU21D;54543;50.712;6.070;2023-10-09T10:39:05;21.43;60.96
67748;HTU21D;54543;50.712;6.070;2023-10-09T10:41:56;21.54;62.77
67748;HTU21D;54543;50.712;6.070;2023-10-09T10:44:33;21.61;60.82
67748;HTU21D;54543;50.712;6.070;2023-10-09T10:47:00;21.61;61.67
67748;HTU21D;54543;50.712;6.070;2023-10-09T10:49:27;21.58;61.81
67748;HTU21D;54543;50.712;6.070;2023-10-09T10:52:02;21.63;62.31
67748;HTU21D;54543;50.712;6.070;2023-10-09T10:54:42;21.60;60.62
67748;HTU21D;54543;50.712;6.070;2023-10-09T10:57:21;21.59;59.35
67748;HTU21D;54543;50.712;6.070;2023-10-09T11:00:10;21.62;59.08
67748;HTU21D;54543;50.712;6.070;2023-10-09T11:02:59;21.64;62.21
67748;HTU21D;54543;50.712;6.070;2023-10-09T11:05:40;21.72;62.31
67748;HTU21D;54543;50.712;6.070;2023-10-09T11:08:09;21.82;60.58
67748;HTU21D;54543;50.712;6.070;2023-10-09T11:10:35;21.90;62.14
67748;HTU21D;54543;50.712;6.070;2023-10-09T11:13:00;21.91;61.30
67748;HTU21D;54543;50.712;6.070;2023-10-09T11:15:36;21.82;60.43
67748;HTU21D;54543;50.712;6.070;2023-10-09T11:18:15;21.76;60.72
67748;HTU21D;54543;50.712;6.070;2023-10-09T11:20:55;21.76;61.65
67748;HTU21D;54543;50.712;6.070;2023-10-09T11:23:31;21.78;61.86
67748;HTU21D;54543;50.712;6.070;2023-10-09T11:26:00;21.82;61.63
67748;HTU21D;54543;50.712;6.070;2023-10-09T11:28:45;21.83;61.51
67748;HTU21D;54543;50.712;6.070;2023-10-09T11:31:23;21.87;61.63
67748;HTU21D;54543;50.712;6.070;2023-10-09T11:33:51;21.88;61.59
67748;HTU21D;54543;50.712;6.070;2023-10-09T11:36:21;21.90;60.48
67748;HTU21D;54543;50.712;6.070;2023-10-09T11:38:57;21.89;61.35
67748;HTU21D;54543;50.712;6.070;2023-10-09T11:41:42;21.90;59.65
67748;HTU21D;54543;50.712;6.070;2023-10-09T11:44:08;21.92;60.32
67748;HTU21D;54543;50.712;6.070;2023-10-09T11:47:00;21.96;59.82
67748;HTU21D;54543;50.712;6.070;2023-10-09T11:49:50;22.02;55.43
67748;HTU21D;54543;50.712;6.070;2023-10-09T11:52:23;22.05;59.18
67748;HTU21D;54543;50.712;6.070;2023-10-09T11:55:02;22.11;59.28
67748;HTU21D;54543;50.712;6.070;2023-10-09T11:57:28;22.19;59.35
67748;HTU21D;54543;50.712;6.070;2023-10-09T11:59:59;22.22;58.94
67748;HTU21D;54543;50.712;6.070;2023-10-09T12:02:26;22.22;58.17
67748;HTU21D;54543;50.712;6.070;2023-10-09T12:04:52;22.14;58.25
67748;HTU21D;54543;50.712;6.070;2023-10-09T12:07:22;22.11;58.13
67748;HTU21D;54543;50.712;6.070;2023-10-09T12:09:48;22.17;58.55
67748;HTU21D;54543;50.712;6.070;2023-10-09T12:12:14;22.20;57.24
67748;HTU21D;54543;50.712;6.070;2023-10-09T12:14:39;22.23;57.06
67748;HTU21D;54543;50.712;6.070;2023-10-09T12:17:06;22.23;57.82
67748;HTU21D;54543;50.712;6.070;2023-10-09T12:21:59;22.31;57.51
67748;HTU21D;54543;50.712;6.070;2023-10-09T12:24:26;22.32;57.16
67748;HTU21D;54543;50.712;6.070;2023-10-09T12:26:53;22.29;56.91
67748;HTU21D;54543;50.712;6.070;2023-10-09T12:29:18;22.27;57.31
67748;HTU21D;54543;50.712;6.070;2023-10-09T12:31:45;22.32;56.86
67748;HTU21D;54543;50.712;6.070;2023-10-09T12:34:12;22.33;57.23
67748;HTU21D;54543;50.712;6.070;2023-10-09T12:36:45;22.34;56.94
67748;HTU21D;54543;50.712;6.070;2023-10-09T12:39:11;22.35;57.51
67748;HTU21D;54543;50.712;6.070;2023-10-09T12:41:44;22.36;57.67
67748;HTU21D;54543;50.712;6.070;2023-10-09T12:44:10;22.39;57.20
67748;HTU21D;54543;50.712;6.070;2023-10-09T12:46:44;22.43;57.65
67748;HTU21D;54543;50.712;6.070;2023-10-09T12:49:20;22.47;57.29
67748;HTU21D;54543;50.712;6.070;2023-10-09T12:51:53;22.46;57.28
67748;HTU21D;54543;50.712;6.070;2023-10-09T12:54:18;22.43;57.66
67748;HTU21D;54543;50.712;6.070;2023-10-09T12:56:52;22.42;57.52
67748;HTU21D;54543;50.712;6.070;2023-10-09T12:59:18;22.41;57.68
67748;HTU21D;54543;50.712;6.070;2023-10-09T13:01:45;22.36;57.45
67748;HTU21D;54543;50.712;6.070;2023-10-09T13:04:15;22.31;58.39
67748;HTU21D;54543;50.712;6.070;2023-10-09T13:06:45;22.31;56.99
67748;HTU21D;54543;50.712;6.070;2023-10-09T13:09:15;22.25;58.16
67748;HTU21D;54543;50.712;6.070;2023-10-09T13:11:42;22.23;58.52
67748;HTU21D;54543;50.712;6.070;2023-10-09T13:14:09;22.18;58.54
67748;HTU21D;54543;50.712;6.070;2023-10-09T13:16:43;22.16;58.94
67748;HTU21D;54543;50.712;6.070;2023-10-09T13:19:09;22.14;58.94
67748;HTU21D;54543;50.712;6.070;2023-10-09T13:21:36;22.10;58.95
67748;HTU21D;54543;50.712;6.070;2023-10-09T13:24:04;22.07;59.21
67748;HTU21D;54543;50.712;6.070;2023-10-09T13:26:30;22.04;59.40
67748;HTU21D;54543;50.712;6.070;2023-10-09T13:28:58;22.02;59.48
67748;HTU21D;54543;50.712;6.070;2023-10-09T13:31:25;21.98;59.52
67748;HTU21D;54543;50.712;6.070;2023-10-09T13:33:55;21.97;59.36
67748;HTU21D;54543;50.712;6.070;2023-10-09T13:36:22;21.97;59.70
67748;HTU21D;54543;50.712;6.070;2023-10-09T13:38:58;21.97;59.63
67748;HTU21D;54543;50.712;6.070;2023-10-09T13:41:27;21.94;59.54
67748;HTU21D;54543;50.712;6.070;2023-10-09T13:43:56;21.89;59.54
67748;HTU21D;54543;50.712;6.070;2023-10-09T13:46:24;21.88;60.06
67748;HTU21D;54543;50.712;6.070;2023-10-09T13:48:50;21.90;59.25
67748;HTU21D;54543;50.712;6.070;2023-10-09T13:51:18;21.89;58.81
67748;HTU21D;54543;50.712;6.070;2023-10-09T13:53:45;21.81;58.81
67748;HTU21D;54543;50.712;6.070;2023-10-09T13:56:17;21.81;57.62
67748;HTU21D;54543;50.712;6.070;2023-10-09T13:58:50;21.79;55.29
67748;HTU21D;54543;50.712;6.070;2023-10-09T14:01:17;21.78;57.55
67748;HTU21D;54543;50.712;6.070;2023-10-09T14:04:01;21.75;57.48
67748;HTU21D;54543;50.712;6.070;2023-10-09T14:06:27;21.74;57.86
67748;HTU21D;54543;50.712;6.070;2023-10-09T14:09:05;21.76;56.23
67748;HTU21D;54543;50.712;6.070;2023-10-09T14:11:33;21.82;57.20
67748;HTU21D;54543;50.712;6.070;2023-10-09T14:14:05;21.87;56.91
67748;HTU21D;54543;50.712;6.070;2023-10-09T14:16:36;21.85;56.45
67748;HTU21D;54543;50.712;6.070;2023-10-09T14:19:01;21.84;56.23
67748;HTU21D;54543;50.712;6.070;2023-10-09T14:21:33;21.89;54.38
67748;HTU21D;54543;50.712;6.070;2023-10-09T14:24:06;21.87;55.54
67748;HTU21D;54543;50.712;6.070;2023-10-09T14:26:42;21.83;55.42
67748;HTU21D;54543;50.712;6.070;2023-10-09T14:29:10;21.83;55.93
67748;HTU21D;54543;50.712;6.070;2023-10-09T14:31:39;21.83;55.72
67748;HTU21D;54543;50.712;6.070;2023-10-09T14:34:05;21.79;55.81
67748;HTU21D;54543;50.712;6.070;2023-10-09T14:36:31;21.79;55.65
67748;HTU21D;54543;50.712;6.070;2023-10-09T14:39:00;21.82;55.54
67748;HTU21D;54543;50.712;6.070;2023-10-09T14:41:26;21.87;55.48
67748;HTU21D;54543;50.712;6.070;2023-10-09T14:43:54;21.91;55.03
67748;HTU21D;54543;50.712;6.070;2023-10-09T14:46:20;21.92;54.55
67748;HTU21D;54543;50.712;6.070;2023-10-09T14:48:52;21.88;54.36
67748;HTU21D;54543;50.712;6.070;2023-10-09T14:51:22;21.88;54.32
67748;HTU21D;54543;50.712;6.070;2023-10-09T14:53:58;21.90;55.13
67748;HTU21D;54543;50.712;6.070;2023-10-09T14:56:25;21.93;55.38
67748;HTU21D;54543;50.712;6.070;2023-10-09T14:58:58;21.95;55.51
67748;HTU21D;54543;50.712;6.070;2023-10-09T15:01:27;22.04;55.29
67748;HTU21D;54543;50.712;6.070;2023-10-09T15:03:59;22.07;55.20
67748;HTU21D;54543;50.712;6.070;2023-10-09T15:06:28;22.04;55.16
67748;HTU21D;54543;50.712;6.070;2023-10-09T15:08:59;21.96;55.22
67748;HTU21D;54543;50.712;6.070;2023-10-09T15:11:33;21.88;55.46
67748;HTU21D;54543;50.712;6.070;2023-10-09T15:13:59;21.80;55.93
67748;HTU21D;54543;50.712;6.070;2023-10-09T15:16:25;21.74;56.03
67748;HTU21D;54543;50.712;6.070;2023-10-09T15:18:53;21.62;55.99
67748;HTU21D;54543;50.712;6.070;2023-10-09T15:21:20;21.51;56.55
67748;HTU21D;54543;50.712;6.070;2023-10-09T15:23:55;21.42;56.65
67748;HTU21D;54543;50.712;6.070;2023-10-09T15:26:21;21.31;56.83
67748;HTU21D;54543;50.712;6.070;2023-10-09T15:28:50;21.23;56.96
67748;HTU21D;54543;50.712;6.070;2023-10-09T15:31:15;21.11;57.29
67748;HTU21D;54543;50.712;6.070;2023-10-09T15:33:42;21.05;57.29
67748;HTU21D;54543;50.712;6.070;2023-10-09T15:36:16;20.98;57.45
67748;HTU21D;54543;50.712;6.070;2023-10-09T15:38:50;20.87;58.04
67748;HTU21D;54543;50.712;6.070;2023-10-09T15:41:17;20.78;58.43
67748;HTU21D;54543;50.712;6.070;2023-10-09T15:43:43;20.73;58.70
67748;HTU21D;54543;50.712;6.070;2023-10-09T15:46:12;20.65;58.99
67748;HTU21D;54543;50.712;6.070;2023-10-09T15:48:41;20.59;59.16
67748;HTU21D;54543;50.712;6.070;2023-10-09T15:51:14;20.57;59.48
67748;HTU21D;54543;50.712;6.070;2023-10-09T15:53:43;20.59;59.39
67748;HTU21D;54543;50.712;6.070;2023-10-09T15:56:13;20.60;59.70
67748;HTU21D;54543;50.712;6.070;2023-10-09T15:58:42;20.65;59.67
67748;HTU21D;54543;50.712;6.070;2023-10-09T16:01:13;20.70;59.59
67748;HTU21D;54543;50.712;6.070;2023-10-09T16:03:42;20.70;59.99
67748;HTU21D;54543;50.712;6.070;2023-10-09T16:06:09;20.74;59.68
67748;HTU21D;54543;50.712;6.070;2023-10-09T16:08:37;20.71;59.94
67748;HTU21D;54543;50.712;6.070;2023-10-09T16:11:04;20.68;59.99
67748;HTU21D;54543;50.712;6.070;2023-10-09T16:13:29;20.65;60.31
67748;HTU21D;54543;50.712;6.070;2023-10-09T16:15:55;20.64;60.48
67748;HTU21D;54543;50.712;6.070;2023-10-09T16:18:25;20.63;60.41